Terminal Aerodrome Forecast
Issued by NWS Bismarck, ND

Home | Current Version | Previous Version | Graphics & Text | Print | Product List | Glossary On
Versions: 1 2 3 4 5 6 7 8 9 10 11 12 13 14 15 16 17 18 19
000
FTUS43 KBIS 161124
TAFISN
TAF
KISN 161124Z 1612/1712 01003KT P6SM FEW008
     FM161300 00000KT 4SM BR FEW110
     FM161500 VRB03KT P6SM FEW110=

USA.gov is the U.S. government's official web portal to all federal, state and local government web resources and services.